Time;durP1;ratioP1;P1;durP2;ratioP2;P2;SDS_P1;SDS_P2;PMS_P1;PMS_P2;Temp;Humidity;BMP_temperature;BMP_pressure;BME280_temperature;BME280_humidity;BME280_pressure;Samples;Min_cycle;Max_cycle;Signal;HPM_P1;HPM_P2
2023/08/17 00:00:19;;;;;;;1.30;1.20;;;;;;;24.58;71.88;95308.75;5085255;28;20443;-56
2023/08/17 00:02:48;;;;;;;7.13;0.90;;;;;;;24.63;72.26;95302.25;5111423;28;20428;-56
2023/08/17 00:05:17;;;;;;;0.77;0.77;;;;;;;24.48;71.98;95295.00;5111109;28;20475;-56
2023/08/17 00:07:45;;;;;;;0.70;0.60;;;;;;;24.49;71.93;95302.75;5109757;28;20833;-56
2023/08/17 00:10:13;;;;;;;1.20;1.00;;;;;;;24.70;70.94;95298.88;5099853;28;20801;-57
2023/08/17 00:12:43;;;;;;;1.53;1.43;;;;;;;24.47;71.18;95302.34;5109969;28;20436;-56
2023/08/17 00:15:13;;;;;;;0.70;0.70;;;;;;;24.44;71.81;95299.53;5111332;28;20871;-56
2023/08/17 00:17:41;;;;;;;0.97;0.97;;;;;;;24.45;70.65;95304.63;5109649;28;20460;-56
2023/08/17 00:20:10;;;;;;;0.90;0.70;;;;;;;24.38;70.63;95298.28;5111343;28;20493;-56
2023/08/17 00:22:38;;;;;;;1.93;0.80;;;;;;;24.38;70.07;95306.41;5114244;28;21082;-56
2023/08/17 00:25:07;;;;;;;0.60;0.53;;;;;;;24.55;71.94;95311.38;5114812;28;20532;-56
2023/08/17 00:27:36;;;;;;;0.73;0.60;;;;;;;24.49;68.95;95305.47;5114144;28;20489;-56
2023/08/17 00:30:05;;;;;;;1.30;1.20;;;;;;;24.60;68.27;95298.34;5114523;28;20797;-56
2023/08/17 00:32:34;;;;;;;4.63;0.50;;;;;;;24.53;68.78;95310.97;5114451;28;20471;-56
2023/08/17 00:35:03;;;;;;;0.73;0.33;;;;;;;24.23;68.78;95244.97;5114407;28;20467;-56
2023/08/17 00:37:31;;;;;;;0.70;0.50;;;;;;;24.55;67.40;95298.63;5114505;28;20471;-56
2023/08/17 00:40:00;;;;;;;1.43;0.97;;;;;;;24.43;67.52;95298.00;5114115;28;20475;-56
2023/08/17 00:42:28;;;;;;;0.53;0.50;;;;;;;24.45;67.85;95301.13;5114321;28;20474;-56
2023/08/17 00:44:56;;;;;;;0.70;0.63;;;;;;;24.44;67.98;95313.09;5114049;27;20528;-56
2023/08/17 00:47:25;;;;;;;0.50;0.30;;;;;;;24.71;67.19;95314.81;5114591;28;20921;-56
2023/08/17 00:49:57;;;;;;;1.43;1.33;;;;;;;24.56;66.45;95312.97;5113661;28;21004;-56
2023/08/17 00:52:25;;;;;;;0.80;0.50;;;;;;;24.56;66.18;95307.53;5114217;28;20496;-56
2023/08/17 00:54:55;;;;;;;1.17;0.40;;;;;;;24.83;65.47;95303.81;5114318;28;21003;-56
2023/08/17 00:57:24;;;;;;;0.40;0.30;;;;;;;25.01;66.54;95310.34;5114345;28;20953;-56
2023/08/17 00:59:53;;;;;;;0.40;0.30;;;;;;;24.87;65.28;95314.75;5113574;28;20443;-56
2023/08/17 01:02:33;;;;;;;0.50;0.40;;;;;;;24.68;64.87;95307.38;5114514;28;20439;-56
2023/08/17 01:05:03;;;;;;;0.67;0.67;;;;;;;24.28;66.11;95310.47;5114076;28;20486;-56
2023/08/17 01:07:31;;;;;;;0.57;0.40;;;;;;;24.22;65.03;95308.38;5114058;28;20439;-56
2023/08/17 01:10:00;;;;;;;0.60;0.60;;;;;;;24.16;65.42;95310.59;5114028;28;20518;-56
2023/08/17 01:12:31;;;;;;;0.50;0.50;;;;;;;24.11;65.73;95307.41;5114111;28;20454;-56
2023/08/17 01:15:09;;;;;;;0.50;0.40;;;;;;;24.27;65.18;95308.09;5113740;28;20531;-56
2023/08/17 01:17:43;;;;;;;0.60;0.40;;;;;;;23.84;64.04;95258.47;5113802;28;20963;-56
2023/08/17 01:20:16;;;;;;;0.60;0.50;;;;;;;24.10;64.31;95308.53;5113839;28;20825;-56
2023/08/17 01:22:49;;;;;;;15.37;1.03;;;;;;;24.03;64.48;95309.16;5113102;28;20439;-56
2023/08/17 01:25:19;;;;;;;0.57;0.40;;;;;;;24.13;63.90;95303.19;5113298;28;20524;-56
2023/08/17 01:27:47;;;;;;;0.90;0.80;;;;;;;23.89;65.02;95298.78;5113709;28;20527;-56
2023/08/17 01:30:18;;;;;;;1.73;0.73;;;;;;;23.83;65.97;95294.00;5113775;28;20439;-56
2023/08/17 01:32:51;;;;;;;0.50;0.50;;;;;;;23.42;66.70;95245.91;5086347;28;20436;-56
2023/08/17 01:35:29;;;;;;;0.60;0.50;;;;;;;23.77;67.49;95300.81;5113060;28;20458;-56
2023/08/17 01:38:00;;;;;;;0.73;0.73;;;;;;;23.58;67.54;95301.56;5113343;28;20442;-56
2023/08/17 01:40:32;;;;;;;0.80;0.60;;;;;;;23.58;68.77;95304.25;5113443;28;20440;-56
2023/08/17 01:43:02;;;;;;;0.60;0.50;;;;;;;23.50;68.85;95307.16;5113494;28;20528;-56
2023/08/17 01:45:31;;;;;;;2.87;1.43;;;;;;;23.50;69.41;95307.16;5112740;28;20689;-56
2023/08/17 01:47:59;;;;;;;0.90;0.73;;;;;;;23.16;70.75;95312.13;5112670;28;20496;-56
2023/08/17 01:50:27;;;;;;;0.57;0.57;;;;;;;23.33;69.37;95282.00;5113358;28;21006;-57
2023/08/17 01:52:56;;;;;;;0.60;0.60;;;;;;;23.34;69.30;95315.25;5113580;28;20439;-56
2023/08/17 01:55:25;;;;;;;0.50;0.40;;;;;;;23.42;70.40;95311.63;5113436;28;20496;-56
2023/08/17 01:57:55;;;;;;;0.73;0.73;;;;;;;23.38;70.33;95306.13;5113396;28;20535;-55
2023/08/17 02:00:23;;;;;;;25.43;0.87;;;;;;;23.07;71.71;95306.09;5086479;28;20457;-56
2023/08/17 02:02:51;;;;;;;3.10;0.90;;;;;;;22.93;72.40;95310.34;5112784;28;20454;-56
2023/08/17 02:05:21;;;;;;;1.10;1.00;;;;;;;22.93;72.79;95302.25;5112585;28;20558;-56
2023/08/17 02:07:49;;;;;;;0.50;0.50;;;;;;;22.69;74.09;95308.59;5112451;28;20450;-56
2023/08/17 02:10:17;;;;;;;0.50;0.40;;;;;;;22.77;74.00;95306.88;5112999;28;20957;-56
2023/08/17 02:12:46;;;;;;;0.73;0.60;;;;;;;22.68;73.71;95302.41;5112324;28;20496;-55
2023/08/17 02:15:16;;;;;;;0.77;0.50;;;;;;;22.71;73.11;95288.19;5112904;28;20496;-56
2023/08/17 02:17:45;;;;;;;0.60;0.60;;;;;;;22.88;72.94;95306.00;5112297;28;20440;-56
2023/08/17 02:20:14;;;;;;;0.67;0.50;;;;;;;22.84;71.77;95298.94;5112084;28;20447;-56
2023/08/17 02:22:42;;;;;;;0.43;0.40;;;;;;;22.79;71.98;95305.38;5111661;28;20432;-56
2023/08/17 02:25:10;;;;;;;0.67;0.60;;;;;;;22.80;72.49;95303.44;5112622;28;20518;-56
2023/08/17 02:27:39;;;;;;;0.47;0.30;;;;;;;22.94;72.47;95303.81;5111655;28;20440;-56
2023/08/17 02:30:08;;;;;;;0.83;0.80;;;;;;;22.90;71.08;95281.31;5112670;28;20540;-56
2023/08/17 02:32:38;;;;;;;0.60;0.40;;;;;;;23.11;71.88;95309.69;5112182;28;20428;-56
2023/08/17 02:35:08;;;;;;;0.40;0.30;;;;;;;22.69;70.48;95225.59;5112284;28;20962;-57
2023/08/17 02:37:37;;;;;;;0.67;0.43;;;;;;;23.16;67.15;95287.78;5098763;28;20439;-57
2023/08/17 02:40:06;;;;;;;0.63;0.63;;;;;;;23.44;67.34;95303.94;5111881;28;20523;-56
2023/08/17 02:42:35;;;;;;;0.80;0.40;;;;;;;23.62;65.21;95293.53;5112376;28;20950;-56
2023/08/17 02:45:03;;;;;;;0.50;0.37;;;;;;;23.71;65.01;95294.91;5111037;28;20935;-56
2023/08/17 02:47:31;;;;;;;0.40;0.30;;;;;;;23.66;64.42;95287.06;5111839;28;21011;-57
2023/08/17 02:50:01;;;;;;;0.40;0.30;;;;;;;23.65;64.38;95290.91;5111510;28;20472;-56
2023/08/17 02:52:30;;;;;;;0.70;0.70;;;;;;;23.43;64.24;95296.19;5103735;28;20795;-57
2023/08/17 02:54:58;;;;;;;3.47;0.93;;;;;;;23.23;67.77;95295.28;5108044;28;20444;-57
2023/08/17 02:57:26;;;;;;;0.40;0.30;;;;;;;23.53;65.91;95296.41;5112468;28;20508;-57
2023/08/17 02:59:55;;;;;;;0.40;0.30;;;;;;;23.53;65.33;95298.34;5111949;28;20473;-57
2023/08/17 03:02:23;;;;;;;0.57;0.40;;;;;;;23.27;66.24;95304.28;5111403;28;20440;-57
2023/08/17 03:04:52;;;;;;;0.60;0.60;;;;;;;23.17;66.47;95293.97;5111473;28;20440;-57
2023/08/17 03:07:22;;;;;;;0.50;0.40;;;;;;;23.21;66.89;95292.94;5111904;28;20496;-58
2023/08/17 03:09:50;;;;;;;1.23;0.50;;;;;;;23.13;67.24;95296.59;5111474;28;20526;-57
2023/08/17 03:12:18;;;;;;;1.20;0.50;;;;;;;23.23;67.08;95292.56;5111697;28;20436;-57
2023/08/17 03:14:47;;;;;;;1.93;0.57;;;;;;;23.43;65.34;95296.19;5111873;28;20475;-56
2023/08/17 03:17:15;;;;;;;0.50;0.40;;;;;;;23.54;66.05;95298.00;5111358;28;20461;-57
2023/08/17 03:19:43;;;;;;;0.97;0.87;;;;;;;23.29;67.63;95291.19;5111367;28;20432;-57
2023/08/17 03:22:12;;;;;;;0.50;0.37;;;;;;;22.78;69.29;95295.69;5110855;28;20448;-57
2023/08/17 03:24:41;;;;;;;0.63;0.63;;;;;;;22.62;70.01;95275.97;5084940;28;20454;-57
2023/08/17 03:27:10;;;;;;;1.53;0.90;;;;;;;22.77;69.86;95292.19;5111769;28;20511;-58
2023/08/17 03:29:38;;;;;;;0.40;0.30;;;;;;;22.74;70.32;95294.81;5111782;28;20443;-57
2023/08/17 03:32:07;;;;;;;0.50;0.40;;;;;;;22.53;71.31;95295.00;5111229;28;20493;-57
2023/08/17 03:34:35;;;;;;;3.47;0.93;;;;;;;22.66;71.02;95295.75;5111614;28;20472;-58
2023/08/17 03:37:06;;;;;;;0.57;0.43;;;;;;;22.49;71.15;95288.72;5111033;28;20521;-57
2023/08/17 03:39:34;;;;;;;0.60;0.57;;;;;;;22.32;71.71;95269.31;5111128;28;20436;-57
2023/08/17 03:42:04;;;;;;;0.60;0.40;;;;;;;22.55;71.60;95295.44;5111737;28;21005;-57
2023/08/17 03:44:33;;;;;;;0.50;0.37;;;;;;;22.70;70.75;95297.44;5111007;28;20444;-57
2023/08/17 03:47:01;;;;;;;0.93;0.40;;;;;;;22.58;71.26;95302.88;5110834;28;20483;-57
2023/08/17 03:49:29;;;;;;;0.40;0.30;;;;;;;22.18;71.98;95285.94;5111016;28;20463;-58
2023/08/17 03:51:58;;;;;;;0.97;0.90;;;;;;;22.26;72.67;95298.50;5111319;28;20436;-57
2023/08/17 03:54:26;;;;;;;0.53;0.50;;;;;;;22.07;73.33;95298.34;5111342;28;20436;-57
2023/08/17 03:56:54;;;;;;;4.20;1.10;;;;;;;21.99;74.18;95300.03;5107502;28;20449;-56
2023/08/17 03:59:24;;;;;;;0.77;0.70;;;;;;;21.92;74.65;95302.53;5107854;28;20523;-57
2023/08/17 04:01:54;;;;;;;0.60;0.60;;;;;;;22.00;74.84;95308.94;5089422;28;20447;-57
2023/08/17 04:04:23;;;;;;;3.07;0.60;;;;;;;21.78;73.74;95258.13;5114245;28;20522;-56
2023/08/17 04:06:54;;;;;;;0.60;0.43;;;;;;;22.00;72.78;95301.63;5114980;28;20491;-57
2023/08/17 04:09:23;;;;;;;0.50;0.40;;;;;;;21.82;72.65;95250.91;5114888;28;20458;-56
2023/08/17 04:11:51;;;;;;;1.00;0.93;;;;;;;22.22;71.94;95307.63;5115252;28;20431;-57
2023/08/17 04:14:19;;;;;;;2.10;0.97;;;;;;;22.23;69.76;95274.88;5115045;28;20462;-56
2023/08/17 04:16:49;;;;;;;0.60;0.50;;;;;;;22.71;68.43;95309.81;5114855;28;20956;-57
2023/08/17 04:19:17;;;;;;;1.33;0.30;;;;;;;22.97;66.70;95298.50;5114591;28;20827;-57
2023/08/17 04:21:46;;;;;;;0.70;0.50;;;;;;;22.89;66.01;95271.66;5115235;28;20463;-57
2023/08/17 04:24:14;;;;;;;0.87;0.50;;;;;;;22.99;65.56;95266.50;5114936;28;20515;-57
2023/08/17 04:26:42;;;;;;;0.50;0.30;;;;;;;23.05;66.07;95269.72;5114921;28;20471;-57
2023/08/17 04:29:11;;;;;;;0.70;0.30;;;;;;;23.26;65.17;95305.41;5114665;28;20527;-57
2023/08/17 04:31:39;;;;;;;0.50;0.40;;;;;;;23.25;66.57;95295.72;5114904;28;21020;-56
2023/08/17 04:34:09;;;;;;;0.50;0.40;;;;;;;23.40;65.50;95308.50;5114355;28;20435;-57
2023/08/17 04:36:37;;;;;;;0.50;0.40;;;;;;;23.41;64.36;95309.25;5114290;28;20518;-56
2023/08/17 04:39:06;;;;;;;0.43;0.30;;;;;;;23.43;64.37;95307.75;5114458;28;20436;-57
2023/08/17 04:41:34;;;;;;;0.50;0.43;;;;;;;23.26;64.20;95316.22;5114794;28;20575;-57
2023/08/17 04:44:02;;;;;;;0.70;0.57;;;;;;;23.38;64.17;95308.03;5088647;28;20527;-56
2023/08/17 04:46:31;;;;;;;0.60;0.30;;;;;;;23.54;64.47;95306.09;5113410;27;20529;-57
2023/08/17 04:48:59;;;;;;;0.40;0.30;;;;;;;23.52;63.91;95305.69;5101861;28;20493;-56
2023/08/17 04:51:29;;;;;;;1.63;0.40;;;;;;;23.75;64.94;95306.59;5113846;28;20443;-57
2023/08/17 04:53:57;;;;;;;0.70;0.30;;;;;;;23.69;63.39;95312.63;5113892;28;20538;-57
2023/08/17 04:56:26;;;;;;;0.60;0.60;;;;;;;23.52;62.62;95311.09;5113989;28;20448;-56
2023/08/17 04:58:55;;;;;;;0.80;0.53;;;;;;;23.56;62.62;95314.66;5114056;28;20440;-56
2023/08/17 05:01:23;;;;;;;0.67;0.67;;;;;;;23.84;65.26;95315.31;5113615;28;20995;-53
2023/08/17 05:03:52;;;;;;;0.50;0.43;;;;;;;23.84;65.14;95314.50;5114226;28;20446;-54
2023/08/17 05:06:20;;;;;;;0.50;0.40;;;;;;;24.03;64.44;95312.63;5113239;28;20827;-54
2023/08/17 05:08:50;;;;;;;0.67;0.67;;;;;;;24.16;65.39;95310.59;5111858;28;20444;-53
2023/08/17 05:11:18;;;;;;;0.97;0.97;;;;;;;24.28;65.77;95309.69;5114152;28;20497;-54
2023/08/17 05:13:47;;;;;;;0.43;0.30;;;;;;;24.38;61.20;95303.69;5113355;28;20444;-54
2023/08/17 05:16:15;;;;;;;0.40;0.20;;;;;;;24.57;63.49;95309.88;5113251;28;20439;-55
2023/08/17 05:18:43;;;;;;;0.90;0.40;;;;;;;24.23;59.42;95307.25;5113715;28;20528;-55
2023/08/17 05:21:12;;;;;;;10.60;0.50;;;;;;;24.17;61.12;95316.81;5113674;28;20496;-54
2023/08/17 05:23:40;;;;;;;0.60;0.60;;;;;;;24.17;60.70;95293.22;5113646;28;20439;-54
2023/08/17 05:26:10;;;;;;;0.50;0.40;;;;;;;24.21;58.41;95310.31;5113388;28;20485;-54
2023/08/17 05:28:38;;;;;;;0.57;0.30;;;;;;;24.45;58.91;95306.53;5113598;28;20436;-54
2023/08/17 05:31:07;;;;;;;0.57;0.50;;;;;;;24.30;58.99;95280.31;5105841;28;20467;-54
2023/08/17 05:33:36;;;;;;;1.07;0.50;;;;;;;24.76;58.61;95295.53;5108032;28;20446;-54
2023/08/17 05:36:05;;;;;;;0.40;0.30;;;;;;;24.92;59.67;95293.53;5113563;28;20513;-54
2023/08/17 05:38:33;;;;;;;0.50;0.40;;;;;;;25.02;56.67;95306.47;5113169;28;20442;-54
2023/08/17 05:41:02;;;;;;;0.60;0.50;;;;;;;24.97;56.08;95306.03;5113176;28;20444;-54
2023/08/17 05:43:32;;;;;;;0.50;0.37;;;;;;;25.03;56.03;95302.63;5113223;28;20444;-52
2023/08/17 05:46:00;;;;;;;0.87;0.50;;;;;;;25.18;55.97;95299.03;5113339;28;20459;-52
2023/08/17 05:48:28;;;;;;;0.70;0.70;;;;;;;25.37;54.55;95298.19;5112513;28;20573;-52
2023/08/17 05:50:57;;;;;;;1.27;0.83;;;;;;;25.70;54.48;95289.41;5113142;28;21004;-53
2023/08/17 05:53:25;;;;;;;0.63;0.40;;;;;;;25.65;54.46;95263.31;5112900;28;20546;-52
2023/08/17 05:55:54;;;;;;;0.40;0.30;;;;;;;26.20;54.54;95294.38;5113392;28;20524;-52
2023/08/17 05:58:22;;;;;;;0.73;0.63;;;;;;;26.67;52.65;95296.50;5112177;28;20431;-52
2023/08/17 06:00:52;;;;;;;0.40;0.30;;;;;;;27.03;51.48;95294.94;5113064;27;20439;-52
2023/08/17 06:03:20;;;;;;;0.50;0.37;;;;;;;27.33;49.70;95297.53;5112621;28;20910;-52
2023/08/17 06:05:48;;;;;;;0.40;0.30;;;;;;;27.33;50.37;95284.72;5112348;28;20431;-52
2023/08/17 06:08:16;;;;;;;0.50;0.30;;;;;;;27.37;50.01;95292.94;5086467;28;20850;-52
2023/08/17 06:10:45;;;;;;;0.37;0.30;;;;;;;27.63;49.94;95288.09;5112407;28;20451;-52
2023/08/17 06:13:13;;;;;;;1.50;1.33;;;;;;;27.65;48.99;95287.72;5110816;28;20435;-53
2023/08/17 06:15:41;;;;;;;0.47;0.47;;;;;;;27.96;46.58;95270.78;5112163;28;20443;-53
2023/08/17 06:18:13;;;;;;;0.40;0.30;;;;;;;28.26;48.46;95284.97;5110988;28;20504;-53
2023/08/17 06:20:50;;;;;;;0.70;0.70;;;;;;;28.87;46.10;95277.81;5110513;28;20432;-53
2023/08/17 06:23:18;;;;;;;0.50;0.30;;;;;;;28.69;46.82;95275.03;5108095;28;20522;-53
2023/08/17 06:25:47;;;;;;;0.43;0.40;;;;;;;28.83;46.67;95271.56;5111669;28;20500;-53
2023/08/17 06:28:15;;;;;;;0.63;0.63;;;;;;;29.10;45.56;95253.66;5112064;28;20487;-52
2023/08/17 06:30:43;;;;;;;0.50;0.50;;;;;;;29.44;45.03;95279.47;5112090;28;20447;-52
2023/08/17 06:33:13;;;;;;;0.40;0.27;;;;;;;29.90;43.70;95276.72;5112275;28;20435;-52
2023/08/17 06:35:41;;;;;;;0.43;0.30;;;;;;;29.91;43.25;95277.47;5110413;28;20440;-52
2023/08/17 06:38:10;;;;;;;0.60;0.40;;;;;;;29.19;43.75;95228.72;5110328;28;20431;-52
2023/08/17 06:40:38;;;;;;;0.50;0.40;;;;;;;29.91;42.72;95278.25;5110484;28;20460;-52
2023/08/17 06:43:06;;;;;;;0.43;0.40;;;;;;;30.35;42.61;95266.06;5110529;28;20442;-52
2023/08/17 06:45:35;;;;;;;0.40;0.30;;;;;;;30.57;41.16;95271.03;5110090;28;20523;-52
2023/08/17 06:48:04;;;;;;;0.40;0.37;;;;;;;30.87;41.48;95266.97;5110302;28;20561;-52
2023/08/17 06:50:34;;;;;;;0.43;0.43;;;;;;;30.25;41.42;95258.66;5078708;28;20996;-52
2023/08/17 06:53:03;;;;;;;0.40;0.30;;;;;;;30.29;40.72;95246.50;5105860;28;20559;-52
2023/08/17 06:55:31;;;;;;;0.47;0.47;;;;;;;30.44;40.51;95258.19;5112252;28;20445;-52
2023/08/17 06:58:00;;;;;;;0.40;0.40;;;;;;;30.54;38.42;95221.81;5112259;28;20820;-52
2023/08/17 07:00:29;;;;;;;1.50;1.50;;;;;;;31.39;39.53;95265.84;5112014;28;20435;-53
2023/08/17 07:02:58;;;;;;;0.47;0.40;;;;;;;31.20;39.14;95261.69;5111950;28;20590;-52
2023/08/17 07:05:28;;;;;;;0.50;0.50;;;;;;;31.76;40.13;95265.94;5112011;28;20550;-53
2023/08/17 07:07:59;;;;;;;0.40;0.40;;;;;;;32.02;38.04;95256.31;5111551;28;20471;-53
2023/08/17 07:10:28;;;;;;;1.17;0.40;;;;;;;31.70;37.76;95251.09;5111707;28;20529;-53
2023/08/17 07:12:56;;;;;;;0.50;0.37;;;;;;;32.46;37.44;95253.44;5111777;28;20518;-53
2023/08/17 07:15:24;;;;;;;0.60;0.40;;;;;;;32.82;36.23;95255.72;5112038;28;20447;-53
2023/08/17 07:17:53;;;;;;;0.50;0.50;;;;;;;32.50;37.08;95253.41;5111681;28;20939;-53
2023/08/17 07:20:21;;;;;;;0.40;0.40;;;;;;;32.40;35.73;95227.66;5111501;28;20459;-53
2023/08/17 07:22:50;;;;;;;0.30;0.20;;;;;;;32.77;36.38;95234.25;5111420;28;20522;-53
2023/08/17 07:25:19;;;;;;;0.40;0.40;;;;;;;33.35;35.48;95241.22;5111320;28;21021;-53
2023/08/17 07:27:48;;;;;;;0.40;0.30;;;;;;;33.60;34.77;95241.66;5111433;28;20462;-53
2023/08/17 07:30:16;;;;;;;0.60;0.43;;;;;;;33.88;32.43;95235.63;5111560;28;20435;-54
2023/08/17 07:32:44;;;;;;;0.93;0.40;;;;;;;33.65;33.19;95230.91;5116039;28;20445;-53
2023/08/17 07:35:13;;;;;;;0.30;0.20;;;;;;;33.22;34.81;95178.63;5115556;28;20946;-53
2023/08/17 07:37:41;;;;;;;0.30;0.30;;;;;;;34.22;34.58;95216.94;5115183;28;20492;-53
2023/08/17 07:40:13;;;;;;;0.30;0.30;;;;;;;34.98;32.03;95223.19;5114162;28;20948;-53
2023/08/17 07:42:42;;;;;;;0.40;0.30;;;;;;;34.14;33.05;95217.47;5115881;27;20495;-53
2023/08/17 07:45:12;;;;;;;2.63;0.40;;;;;;;34.72;33.90;95222.19;5114742;28;20439;-53
2023/08/17 07:47:40;;;;;;;0.40;0.30;;;;;;;34.58;33.31;95224.47;5113993;28;20565;-59
2023/08/17 07:50:09;;;;;;;0.37;0.30;;;;;;;35.01;33.46;95225.88;5114363;28;20466;-60
2023/08/17 07:52:38;;;;;;;0.40;0.40;;;;;;;34.36;31.29;95221.34;5114584;28;20446;-60
2023/08/17 07:55:06;;;;;;;0.40;0.30;;;;;;;34.21;31.02;95209.84;5115004;28;20492;-60
2023/08/17 07:57:35;;;;;;;0.50;0.40;;;;;;;34.32;31.72;95199.41;5115531;28;20569;-60
2023/08/17 08:00:06;;;;;;;0.40;0.30;;;;;;;34.45;32.30;95207.81;5115270;28;20804;-60
2023/08/17 08:02:34;;;;;;;0.30;0.30;;;;;;;35.50;30.42;95209.34;5115261;28;20430;-60
2023/08/17 08:05:03;;;;;;;0.30;0.30;;;;;;;36.38;30.38;95217.28;5115111;28;20196;-60
2023/08/17 08:07:32;;;;;;;0.50;0.30;;;;;;;35.22;31.49;95199.78;5115333;28;20449;-60
2023/08/17 08:10:00;;;;;;;0.40;0.30;;;;;;;35.57;29.36;95198.19;5088727;28;20217;-62
2023/08/17 08:12:29;;;;;;;0.70;0.33;;;;;;;36.09;29.96;95173.91;5115603;28;20197;-62
2023/08/17 08:14:57;;;;;;;0.40;0.30;;;;;;;36.67;29.48;95202.22;5114797;28;20204;-63
2023/08/17 08:17:27;;;;;;;0.40;0.30;;;;;;;36.81;29.57;95192.75;5114208;28;20250;-61
2023/08/17 08:19:56;;;;;;;0.50;0.50;;;;;;;36.74;28.91;95202.00;5114184;28;20731;-64
2023/08/17 08:22:25;;;;;;;0.30;0.30;;;;;;;36.53;29.37;95201.88;5114603;28;20193;-64
2023/08/17 08:24:53;;;;;;;0.50;0.40;;;;;;;36.65;29.46;95187.31;5114785;28;20675;-64
2023/08/17 08:27:21;;;;;;;2.10;0.30;;;;;;;36.23;29.31;95187.31;5115007;28;20189;-64
2023/08/17 08:29:50;;;;;;;0.40;0.30;;;;;;;36.81;29.35;95178.94;5114169;28;20209;-63
2023/08/17 08:32:18;;;;;;;0.30;0.30;;;;;;;36.98;28.37;95185.13;5114468;28;20239;-64
2023/08/17 08:34:48;;;;;;;0.50;0.40;;;;;;;37.58;28.88;95177.63;5114571;28;20289;-64
2023/08/17 08:37:17;;;;;;;0.40;0.30;;;;;;;36.76;30.55;95176.72;5114141;28;20241;-64
2023/08/17 08:39:51;;;;;;;0.77;0.40;;;;;;;37.13;31.01;95175.16;5114546;28;20785;-65
2023/08/17 08:42:20;;;;;;;0.30;0.30;;;;;;;37.28;28.94;95160.44;5114396;28;20562;-64
2023/08/17 08:44:50;;;;;;;3.47;0.73;;;;;;;35.70;30.65;94975.63;5114451;28;20192;-65
2023/08/17 08:47:19;;;;;;;0.82;0.73;;;;;;;37.02;29.93;95169.97;5114509;28;20197;-65
2023/08/17 08:49:56;;;;;;;0.40;0.32;;;;;;;37.49;28.72;95170.81;5114190;28;20250;-66
2023/08/17 08:52:31;;;;;;;0.60;0.40;;;;;;;37.24;29.34;95167.31;5114585;28;20196;-66
2023/08/17 08:55:03;;;;;;;0.40;0.30;;;;;;;37.32;30.87;95154.78;5114693;28;20280;-68
2023/08/17 08:57:31;;;;;;;0.40;0.30;;;;;;;38.33;27.36;95154.44;5114466;28;20201;-68
2023/08/17 09:00:00;;;;;;;0.52;0.47;;;;;;;37.83;28.74;95172.00;5114082;28;20246;-68
2023/08/17 09:02:29;;;;;;;5.68;0.30;;;;;;;37.66;28.46;95168.66;5114745;28;20188;-65
2023/08/17 09:05:01;;;;;;;0.30;0.30;;;;;;;38.07;27.76;95162.88;5114364;27;20553;-68
2023/08/17 09:07:31;;;;;;;0.40;0.30;;;;;;;38.48;27.48;95125.75;5114444;28;20230;-68
2023/08/17 09:10:00;;;;;;;0.30;0.30;;;;;;;38.96;27.83;95148.44;5102008;28;20697;-68
2023/08/17 09:12:28;;;;;;;0.40;0.40;;;;;;;38.00;27.48;95013.66;5117573;28;20206;-68
2023/08/17 09:15:08;;;;;;;0.40;0.30;;;;;;;38.79;27.92;95105.59;5122568;28;20257;-67
2023/08/17 09:17:36;;;;;;;0.32;0.32;;;;;;;38.82;26.97;95146.22;5113788;28;20197;-66
2023/08/17 09:20:09;;;;;;;0.30;0.30;;;;;;;38.57;27.95;95142.41;5113996;28;20396;-66
2023/08/17 09:22:39;;;;;;;0.38;0.30;;;;;;;38.95;30.00;95130.28;5113933;28;20261;-67
2023/08/17 09:25:11;;;;;;;0.47;0.40;;;;;;;39.33;28.68;95122.38;5114350;28;20197;-67
2023/08/17 09:27:41;;;;;;;0.30;0.30;;;;;;;39.27;29.89;95130.53;5113319;28;20651;-55
2023/08/17 09:30:11;;;;;;;0.40;0.40;;;;;;;38.64;26.45;95121.97;5113994;28;20690;-56
2023/08/17 09:32:40;;;;;;;0.70;0.70;;;;;;;39.09;25.84;95127.69;5113395;28;20200;-56
2023/08/17 09:35:10;;;;;;;2.85;0.50;;;;;;;40.00;26.40;95122.25;5113257;28;20257;-55
2023/08/17 09:37:38;;;;;;;0.32;0.32;;;;;;;40.50;26.21;95112.47;5087815;28;20189;-55
2023/08/17 09:40:08;;;;;;;0.30;0.30;;;;;;;40.80;25.90;95110.66;5112909;28;20280;-54
2023/08/17 09:42:37;;;;;;;0.52;0.52;;;;;;;39.99;26.53;95115.16;5113468;28;20189;-56
2023/08/17 09:45:06;;;;;;;0.40;0.40;;;;;;;39.34;26.88;95110.81;5112655;28;20208;-54
2023/08/17 09:47:36;;;;;;;0.25;0.22;;;;;;;40.04;25.46;95106.22;5113699;28;20581;-55
2023/08/17 09:50:07;;;;;;;0.70;0.70;;;;;;;39.37;27.04;95067.50;5112734;28;20225;-55
2023/08/17 09:52:39;;;;;;;0.30;0.30;;;;;;;39.09;25.94;95096.44;5113357;28;20203;-56
2023/08/17 09:55:10;;;;;;;0.30;0.30;;;;;;;40.19;24.13;95103.56;5111982;28;20189;-55
2023/08/17 09:57:41;;;;;;;0.25;0.20;;;;;;;40.41;24.32;95096.56;5112896;28;20632;-55
2023/08/17 10:00:10;;;;;;;0.30;0.30;;;;;;;39.94;26.70;95085.25;5112596;28;20288;-56
2023/08/17 10:02:39;;;;;;;3.03;0.38;;;;;;;40.23;26.67;95084.75;5113337;28;20674;-55
2023/08/17 10:05:12;;;;;;;1.52;0.50;;;;;;;40.02;25.29;95086.47;5112633;28;20228;-55
2023/08/17 10:07:47;;;;;;;0.45;0.40;;;;;;;39.51;25.58;95078.00;5112698;28;20193;-56
2023/08/17 10:10:20;;;;;;;0.30;0.30;;;;;;;39.39;26.57;95078.94;5113366;28;20248;-55
2023/08/17 10:12:54;;;;;;;0.63;0.63;;;;;;;38.94;26.22;95076.09;5112754;28;20231;-55
2023/08/17 10:15:26;;;;;;;0.35;0.30;;;;;;;38.90;26.21;95044.97;5113093;28;20192;-56
2023/08/17 10:18:03;;;;;;;0.30;0.30;;;;;;;39.77;25.00;95073.69;5112111;28;20197;-55
2023/08/17 10:20:35;;;;;;;0.20;0.20;;;;;;;40.79;24.17;95070.19;5112922;28;20201;-55
2023/08/17 10:23:11;;;;;;;0.50;0.30;;;;;;;40.73;25.10;95070.09;5086220;28;20296;-56
2023/08/17 10:25:41;;;;;;;0.40;0.35;;;;;;;41.12;24.84;95068.16;5112994;28;20245;-56
2023/08/17 10:28:10;;;;;;;0.40;0.40;;;;;;;41.97;23.92;95058.25;5112679;28;20193;-56
2023/08/17 10:30:40;;;;;;;0.40;0.40;;;;;;;41.95;23.86;95055.91;5112038;28;20217;-56
2023/08/17 10:33:09;;;;;;;0.20;0.20;;;;;;;42.52;23.28;95056.44;5112583;28;20274;-54
2023/08/17 10:35:40;;;;;;;0.30;0.30;;;;;;;41.68;23.69;95056.16;5112176;28;20192;-54
2023/08/17 10:38:10;;;;;;;0.25;0.25;;;;;;;41.05;23.79;95051.84;5112844;28;20724;-56
2023/08/17 10:40:42;;;;;;;0.40;0.40;;;;;;;41.16;24.84;95029.84;5112415;28;20613;-56
2023/08/17 10:43:12;;;;;;;0.38;0.38;;;;;;;40.77;23.29;95012.28;5112251;28;20279;-56
2023/08/17 10:45:40;;;;;;;0.20;0.20;;;;;;;40.73;24.61;95044.28;5112054;28;20193;-56
2023/08/17 10:48:29;;;;;;;0.30;0.20;;;;;;;41.35;24.25;95036.81;5111934;28;20203;-56
2023/08/17 10:51:03;;;;;;;0.75;0.40;;;;;;;41.20;25.41;95027.63;5111730;28;20212;-56
2023/08/17 10:53:42;;;;;;;0.35;0.35;;;;;;;41.54;23.34;95029.09;5111995;28;20282;-56
2023/08/17 10:56:15;;;;;;;0.30;0.30;;;;;;;42.74;22.24;95025.31;5112617;28;20204;-56
2023/08/17 10:58:45;;;;;;;0.40;0.40;;;;;;;43.24;21.78;95020.44;5086280;28;20280;-55
2023/08/17 11:01:16;;;;;;;0.73;0.73;;;;;;;42.62;21.50;95001.31;5112320;28;20270;-55
2023/08/17 11:04:08;;;;;;;0.32;0.32;;;;;;;40.99;22.59;95020.34;5112198;28;20609;-56
2023/08/17 11:06:37;;;;;;;0.30;0.25;;;;;;;41.00;22.47;94986.53;5111750;28;20200;-56
2023/08/17 11:09:09;;;;;;;0.30;0.30;;;;;;;41.78;21.97;95010.31;5111991;28;20624;-56
2023/08/17 11:11:38;;;;;;;0.28;0.20;;;;;;;42.78;22.54;95015.50;5111743;28;20266;-56
2023/08/17 11:14:06;;;;;;;0.35;0.30;;;;;;;42.68;21.73;95013.34;5111874;28;20650;-56
2023/08/17 11:16:35;;;;;;;0.40;0.40;;;;;;;42.72;22.37;95005.53;5112093;28;20196;-56
2023/08/17 11:19:04;;;;;;;0.40;0.40;;;;;;;42.15;22.27;95008.69;5111186;28;20243;-57
2023/08/17 11:21:32;;;;;;;0.30;0.30;;;;;;;42.51;21.40;94981.63;5111841;28;20198;-56
2023/08/17 11:24:00;;;;;;;0.40;0.30;;;;;;;41.78;22.61;94997.16;5111369;28;20213;-56
2023/08/17 11:26:30;;;;;;;0.40;0.20;;;;;;;42.30;22.18;94991.97;5112093;28;20224;-57
2023/08/17 11:29:03;;;;;;;0.50;0.40;;;;;;;42.07;21.59;94990.84;5111598;28;20228;-56
2023/08/17 11:31:33;;;;;;;0.30;0.30;;;;;;;41.84;23.74;94990.94;5111244;28;20221;-58
2023/08/17 11:34:01;;;;;;;0.30;0.30;;;;;;;42.36;22.44;94990.03;5110526;28;20250;-58
2023/08/17 11:36:30;;;;;;;0.30;0.30;;;;;;;41.29;23.32;94969.19;5111862;28;20197;-57
2023/08/17 11:38:59;;;;;;;0.30;0.28;;;;;;;42.43;21.71;94986.09;5111317;28;20197;-58
2023/08/17 11:41:27;;;;;;;0.30;0.20;;;;;;;41.62;22.70;94978.13;5111806;28;20199;-58
2023/08/17 11:43:58;;;;;;;0.50;0.50;;;;;;;41.94;21.65;94975.66;5111604;28;20727;-58